sensor_id;sensor_type;location;lat;lon;timestamp;P1;durP1;ratioP1;P2;durP2;ratioP2
62475;SDS011;50739;45.670;11.936;2022-08-27T00:03:14;7.35;;;5.65;;
62475;SDS011;50739;45.670;11.936;2022-08-27T00:08:17;6.70;;;5.67;;
62475;SDS011;50739;45.670;11.936;2022-08-27T00:13:21;7.50;;;6.30;;
62475;SDS011;50739;45.670;11.936;2022-08-27T00:18:24;7.00;;;6.30;;
62475;SDS011;50739;45.670;11.936;2022-08-27T00:23:26;7.22;;;5.93;;
62475;SDS011;50739;45.670;11.936;2022-08-27T00:28:31;6.38;;;5.18;;
62475;SDS011;50739;45.670;11.936;2022-08-27T00:33:38;8.93;;;5.60;;
62475;SDS011;50739;45.670;11.936;2022-08-27T00:38:40;7.47;;;5.32;;
62475;SDS011;50739;45.670;11.936;2022-08-27T00:43:44;6.40;;;4.90;;
62475;SDS011;50739;45.670;11.936;2022-08-27T00:48:51;6.75;;;5.05;;
62475;SDS011;50739;45.670;11.936;2022-08-27T00:53:59;7.00;;;4.10;;
62475;SDS011;50739;45.670;11.936;2022-08-27T00:59:02;5.95;;;4.40;;
62475;SDS011;50739;45.670;11.936;2022-08-27T01:04:08;4.30;;;3.88;;
62475;SDS011;50739;45.670;11.936;2022-08-27T01:09:13;5.60;;;4.10;;
62475;SDS011;50739;45.670;11.936;2022-08-27T01:14:17;5.03;;;3.80;;
62475;SDS011;50739;45.670;11.936;2022-08-27T01:19:23;4.32;;;3.60;;
62475;SDS011;50739;45.670;11.936;2022-08-27T01:24:32;4.37;;;3.70;;
62475;SDS011;50739;45.670;11.936;2022-08-27T01:29:36;6.15;;;4.03;;
62475;SDS011;50739;45.670;11.936;2022-08-27T01:34:38;5.25;;;3.92;;
62475;SDS011;50739;45.670;11.936;2022-08-27T01:39:42;6.55;;;4.00;;
62475;SDS011;50739;45.670;11.936;2022-08-27T01:44:47;7.07;;;4.13;;
62475;SDS011;50739;45.670;11.936;2022-08-27T01:49:51;5.20;;;4.00;;
62475;SDS011;50739;45.670;11.936;2022-08-27T01:55:03;5.00;;;3.90;;
62475;SDS011;50739;45.670;11.936;2022-08-27T02:00:08;6.07;;;4.20;;
62475;SDS011;50739;45.670;11.936;2022-08-27T02:05:12;7.72;;;5.60;;
62475;SDS011;50739;45.670;11.936;2022-08-27T02:10:17;7.22;;;5.38;;
62475;SDS011;50739;45.670;11.936;2022-08-27T02:15:22;8.63;;;5.85;;
62475;SDS011;50739;45.670;11.936;2022-08-27T02:20:24;7.28;;;5.00;;
62475;SDS011;50739;45.670;11.936;2022-08-27T02:25:28;6.93;;;5.10;;
62475;SDS011;50739;45.670;11.936;2022-08-27T02:30:31;7.97;;;5.23;;
62475;SDS011;50739;45.670;11.936;2022-08-27T02:35:35;7.03;;;4.80;;
62475;SDS011;50739;45.670;11.936;2022-08-27T02:40:42;6.75;;;4.82;;
62475;SDS011;50739;45.670;11.936;2022-08-27T02:45:44;6.28;;;4.75;;
62475;SDS011;50739;45.670;11.936;2022-08-27T02:50:46;5.93;;;4.50;;
62475;SDS011;50739;45.670;11.936;2022-08-27T02:55:49;6.37;;;4.50;;
62475;SDS011;50739;45.670;11.936;2022-08-27T03:00:52;6.03;;;4.50;;
62475;SDS011;50739;45.670;11.936;2022-08-27T03:05:56;11.45;;;5.10;;
62475;SDS011;50739;45.670;11.936;2022-08-27T03:11:00;10.13;;;4.20;;
62475;SDS011;50739;45.670;11.936;2022-08-27T03:16:02;5.25;;;4.25;;
62475;SDS011;50739;45.670;11.936;2022-08-27T03:21:05;4.95;;;4.30;;
62475;SDS011;50739;45.670;11.936;2022-08-27T03:26:10;7.90;;;4.90;;
62475;SDS011;50739;45.670;11.936;2022-08-27T03:31:17;6.30;;;4.67;;
62475;SDS011;50739;45.670;11.936;2022-08-27T03:36:27;6.53;;;4.38;;
62475;SDS011;50739;45.670;11.936;2022-08-27T03:41:32;5.23;;;4.40;;
62475;SDS011;50739;45.670;11.936;2022-08-27T03:46:34;7.82;;;4.68;;
62475;SDS011;50739;45.670;11.936;2022-08-27T03:51:36;7.57;;;5.35;;
62475;SDS011;50739;45.670;11.936;2022-08-27T03:56:40;8.33;;;4.90;;
62475;SDS011;50739;45.670;11.936;2022-08-27T04:01:42;9.20;;;5.40;;
62475;SDS011;50739;45.670;11.936;2022-08-27T04:06:45;9.60;;;5.65;;
62475;SDS011;50739;45.670;11.936;2022-08-27T04:11:48;10.00;;;6.47;;
62475;SDS011;50739;45.670;11.936;2022-08-27T04:16:50;12.65;;;7.10;;
62475;SDS011;50739;45.670;11.936;2022-08-27T04:21:53;11.57;;;6.97;;
62475;SDS011;50739;45.670;11.936;2022-08-27T04:27:01;10.07;;;7.03;;
62475;SDS011;50739;45.670;11.936;2022-08-27T04:32:03;9.77;;;6.68;;
62475;SDS011;50739;45.670;11.936;2022-08-27T04:37:05;12.63;;;7.35;;
62475;SDS011;50739;45.670;11.936;2022-08-27T04:42:09;12.23;;;7.00;;
62475;SDS011;50739;45.670;11.936;2022-08-27T04:47:11;14.13;;;7.22;;
62475;SDS011;50739;45.670;11.936;2022-08-27T04:52:14;13.67;;;7.87;;
62475;SDS011;50739;45.670;11.936;2022-08-27T04:57:17;12.27;;;7.20;;
62475;SDS011;50739;45.670;11.936;2022-08-27T05:02:19;10.20;;;7.20;;
62475;SDS011;50739;45.670;11.936;2022-08-27T05:07:21;11.98;;;7.07;;
62475;SDS011;50739;45.670;11.936;2022-08-27T05:12:25;10.65;;;6.95;;
62475;SDS011;50739;45.670;11.936;2022-08-27T05:17:26;10.43;;;6.65;;
62475;SDS011;50739;45.670;11.936;2022-08-27T05:22:30;11.05;;;7.18;;
62475;SDS011;50739;45.670;11.936;2022-08-27T05:27:33;9.70;;;6.25;;
62475;SDS011;50739;45.670;11.936;2022-08-27T05:32:35;11.10;;;6.50;;
62475;SDS011;50739;45.670;11.936;2022-08-27T05:37:37;7.47;;;6.23;;
62475;SDS011;50739;45.670;11.936;2022-08-27T05:42:41;11.43;;;6.63;;
62475;SDS011;50739;45.670;11.936;2022-08-27T05:47:43;10.88;;;6.90;;
62475;SDS011;50739;45.670;11.936;2022-08-27T05:52:45;10.10;;;7.10;;
62475;SDS011;50739;45.670;11.936;2022-08-27T05:57:48;9.52;;;6.60;;
62475;SDS011;50739;45.670;11.936;2022-08-27T06:02:50;15.32;;;6.65;;
62475;SDS011;50739;45.670;11.936;2022-08-27T06:07:52;11.60;;;7.20;;
62475;SDS011;50739;45.670;11.936;2022-08-27T06:12:56;9.70;;;6.22;;
62475;SDS011;50739;45.670;11.936;2022-08-27T06:17:58;9.10;;;6.27;;
62475;SDS011;50739;45.670;11.936;2022-08-27T06:23:00;9.43;;;6.63;;
62475;SDS011;50739;45.670;11.936;2022-08-27T06:28:03;8.73;;;6.20;;
62475;SDS011;50739;45.670;11.936;2022-08-27T06:33:05;9.68;;;6.20;;
62475;SDS011;50739;45.670;11.936;2022-08-27T06:38:07;13.25;;;6.40;;
62475;SDS011;50739;45.670;11.936;2022-08-27T06:43:11;10.18;;;6.57;;
62475;SDS011;50739;45.670;11.936;2022-08-27T06:48:13;10.27;;;6.63;;
62475;SDS011;50739;45.670;11.936;2022-08-27T06:53:15;8.80;;;6.32;;
62475;SDS011;50739;45.670;11.936;2022-08-27T06:58:18;9.45;;;6.53;;
62475;SDS011;50739;45.670;11.936;2022-08-27T07:03:20;8.57;;;6.10;;
62475;SDS011;50739;45.670;11.936;2022-08-27T07:08:22;10.68;;;6.00;;
62475;SDS011;50739;45.670;11.936;2022-08-27T07:13:25;7.68;;;5.80;;
62475;SDS011;50739;45.670;11.936;2022-08-27T07:18:28;7.37;;;5.87;;
62475;SDS011;50739;45.670;11.936;2022-08-27T07:23:30;9.00;;;6.30;;
62475;SDS011;50739;45.670;11.936;2022-08-27T07:28:35;8.38;;;6.00;;
62475;SDS011;50739;45.670;11.936;2022-08-27T07:33:38;6.25;;;5.63;;
62475;SDS011;50739;45.670;11.936;2022-08-27T07:38:41;7.25;;;5.22;;
62475;SDS011;50739;45.670;11.936;2022-08-27T07:43:44;6.80;;;5.50;;
62475;SDS011;50739;45.670;11.936;2022-08-27T07:49:03;7.75;;;5.60;;
62475;SDS011;50739;45.670;11.936;2022-08-27T07:54:05;7.88;;;5.60;;
62475;SDS011;50739;45.670;11.936;2022-08-27T07:59:09;9.20;;;5.47;;
62475;SDS011;50739;45.670;11.936;2022-08-27T08:04:11;6.32;;;5.22;;
62475;SDS011;50739;45.670;11.936;2022-08-27T08:09:13;7.95;;;5.55;;
62475;SDS011;50739;45.670;11.936;2022-08-27T08:14:16;5.88;;;5.03;;
62475;SDS011;50739;45.670;11.936;2022-08-27T08:19:19;6.45;;;4.90;;
62475;SDS011;50739;45.670;11.936;2022-08-27T08:24:21;7.35;;;5.15;;
62475;SDS011;50739;45.670;11.936;2022-08-27T08:29:24;6.40;;;4.93;;
62475;SDS011;50739;45.670;11.936;2022-08-27T08:34:26;7.83;;;4.90;;
62475;SDS011;50739;45.670;11.936;2022-08-27T08:39:28;7.63;;;5.28;;
62475;SDS011;50739;45.670;11.936;2022-08-27T08:44:33;9.47;;;5.57;;
62475;SDS011;50739;45.670;11.936;2022-08-27T08:49:39;8.87;;;5.33;;
62475;SDS011;50739;45.670;11.936;2022-08-27T08:54:47;7.32;;;5.40;;
62475;SDS011;50739;45.670;11.936;2022-08-27T08:59:53;9.07;;;5.10;;
62475;SDS011;50739;45.670;11.936;2022-08-27T09:05:01;7.97;;;5.32;;
62475;SDS011;50739;45.670;11.936;2022-08-27T09:10:09;6.40;;;5.15;;
62475;SDS011;50739;45.670;11.936;2022-08-27T09:15:21;6.70;;;4.57;;
62475;SDS011;50739;45.670;11.936;2022-08-27T09:20:25;7.13;;;4.93;;
62475;SDS011;50739;45.670;11.936;2022-08-27T09:25:28;7.13;;;4.90;;
62475;SDS011;50739;45.670;11.936;2022-08-27T09:30:41;6.25;;;5.30;;
62475;SDS011;50739;45.670;11.936;2022-08-27T09:35:44;7.53;;;5.50;;
62475;SDS011;50739;45.670;11.936;2022-08-27T09:40:48;14.93;;;5.35;;
62475;SDS011;50739;45.670;11.936;2022-08-27T09:45:53;7.28;;;5.28;;
62475;SDS011;50739;45.670;11.936;2022-08-27T09:50:57;7.20;;;5.45;;
62475;SDS011;50739;45.670;11.936;2022-08-27T09:56:02;7.82;;;5.53;;
62475;SDS011;50739;45.670;11.936;2022-08-27T10:01:15;8.35;;;5.90;;
62475;SDS011;50739;45.670;11.936;2022-08-27T10:06:25;6.40;;;4.80;;
62475;SDS011;50739;45.670;11.936;2022-08-27T10:11:28;7.23;;;4.43;;
62475;SDS011;50739;45.670;11.936;2022-08-27T10:16:42;6.40;;;4.25;;
62475;SDS011;50739;45.670;11.936;2022-08-27T10:21:52;4.73;;;4.00;;
62475;SDS011;50739;45.670;11.936;2022-08-27T10:27:03;5.68;;;4.28;;
62475;SDS011;50739;45.670;11.936;2022-08-27T10:32:17;7.53;;;4.18;;
62475;SDS011;50739;45.670;11.936;2022-08-27T10:37:40;6.17;;;4.17;;
62475;SDS011;50739;45.670;11.936;2022-08-27T10:42:52;8.85;;;4.93;;
62475;SDS011;50739;45.670;11.936;2022-08-27T10:48:08;6.70;;;4.43;;
62475;SDS011;50739;45.670;11.936;2022-08-27T10:53:21;5.00;;;4.22;;
62475;SDS011;50739;45.670;11.936;2022-08-27T10:58:34;5.88;;;4.05;;
62475;SDS011;50739;45.670;11.936;2022-08-27T11:03:43;6.32;;;4.13;;
62475;SDS011;50739;45.670;11.936;2022-08-27T11:08:50;6.25;;;4.40;;
62475;SDS011;50739;45.670;11.936;2022-08-27T11:13:56;4.57;;;4.10;;
62475;SDS011;50739;45.670;11.936;2022-08-27T11:19:02;8.13;;;5.10;;
62475;SDS011;50739;45.670;11.936;2022-08-27T11:24:13;6.05;;;4.38;;
62475;SDS011;50739;45.670;11.936;2022-08-27T11:29:24;6.27;;;4.70;;
62475;SDS011;50739;45.670;11.936;2022-08-27T11:34:34;7.63;;;4.00;;
62475;SDS011;50739;45.670;11.936;2022-08-27T11:39:45;5.10;;;3.83;;
62475;SDS011;50739;45.670;11.936;2022-08-27T11:44:57;5.63;;;3.58;;
62475;SDS011;50739;45.670;11.936;2022-08-27T11:50:14;4.93;;;3.80;;
62475;SDS011;50739;45.670;11.936;2022-08-27T11:55:23;7.60;;;4.00;;
62475;SDS011;50739;45.670;11.936;2022-08-27T12:00:28;9.95;;;4.40;;
62475;SDS011;50739;45.670;11.936;2022-08-27T12:05:35;6.30;;;4.00;;
62475;SDS011;50739;45.670;11.936;2022-08-27T12:10:47;6.53;;;4.10;;
62475;SDS011;50739;45.670;11.936;2022-08-27T12:16:00;5.50;;;4.00;;
62475;SDS011;50739;45.670;11.936;2022-08-27T12:21:14;4.60;;;3.92;;
62475;SDS011;50739;45.670;11.936;2022-08-27T12:26:29;6.18;;;4.43;;
62475;SDS011;50739;45.670;11.936;2022-08-27T12:31:33;5.10;;;4.13;;
62475;SDS011;50739;45.670;11.936;2022-08-27T12:36:39;6.33;;;4.23;;
62475;SDS011;50739;45.670;11.936;2022-08-27T12:41:43;6.32;;;3.90;;
62475;SDS011;50739;45.670;11.936;2022-08-27T12:46:47;4.50;;;3.50;;
62475;SDS011;50739;45.670;11.936;2022-08-27T12:51:53;5.97;;;3.03;;
62475;SDS011;50739;45.670;11.936;2022-08-27T12:56:57;4.83;;;2.80;;
62475;SDS011;50739;45.670;11.936;2022-08-27T13:02:08;3.10;;;2.45;;
62475;SDS011;50739;45.670;11.936;2022-08-27T13:07:26;2.67;;;2.30;;
62475;SDS011;50739;45.670;11.936;2022-08-27T13:12:28;3.60;;;2.40;;
62475;SDS011;50739;45.670;11.936;2022-08-27T13:17:30;2.80;;;2.33;;
62475;SDS011;50739;45.670;11.936;2022-08-27T13:22:38;2.67;;;2.10;;
62475;SDS011;50739;45.670;11.936;2022-08-27T13:27:49;4.23;;;2.10;;
62475;SDS011;50739;45.670;11.936;2022-08-27T13:32:53;3.33;;;2.10;;
62475;SDS011;50739;45.670;11.936;2022-08-27T13:37:58;2.80;;;2.30;;
62475;SDS011;50739;45.670;11.936;2022-08-27T13:43:02;2.70;;;2.30;;
62475;SDS011;50739;45.670;11.936;2022-08-27T13:48:09;4.97;;;2.42;;
62475;SDS011;50739;45.670;11.936;2022-08-27T13:53:17;5.15;;;3.03;;
62475;SDS011;50739;45.670;11.936;2022-08-27T13:58:39;3.83;;;2.58;;
62475;SDS011;50739;45.670;11.936;2022-08-27T14:03:46;3.28;;;2.70;;
62475;SDS011;50739;45.670;11.936;2022-08-27T14:08:50;4.38;;;2.45;;
62475;SDS011;50739;45.670;11.936;2022-08-27T14:13:53;4.30;;;3.00;;
62475;SDS011;50739;45.670;11.936;2022-08-27T14:19:02;5.00;;;3.80;;
62475;SDS011;50739;45.670;11.936;2022-08-27T14:24:07;4.53;;;3.65;;
62475;SDS011;50739;45.670;11.936;2022-08-27T14:29:10;5.63;;;3.38;;
62475;SDS011;50739;45.670;11.936;2022-08-27T14:34:12;6.25;;;3.92;;
62475;SDS011;50739;45.670;11.936;2022-08-27T14:39:18;3.95;;;3.55;;
62475;SDS011;50739;45.670;11.936;2022-08-27T14:44:22;5.47;;;3.90;;
62475;SDS011;50739;45.670;11.936;2022-08-27T14:49:25;4.00;;;2.80;;
62475;SDS011;50739;45.670;11.936;2022-08-27T14:54:32;3.93;;;3.03;;
62475;SDS011;50739;45.670;11.936;2022-08-27T14:59:35;3.95;;;2.95;;
62475;SDS011;50739;45.670;11.936;2022-08-27T15:04:37;4.90;;;2.90;;
62475;SDS011;50739;45.670;11.936;2022-08-27T15:09:41;4.15;;;3.00;;
62475;SDS011;50739;45.670;11.936;2022-08-27T15:14:43;4.57;;;2.90;;
62475;SDS011;50739;45.670;11.936;2022-08-27T15:19:47;4.00;;;3.07;;
62475;SDS011;50739;45.670;11.936;2022-08-27T15:24:51;4.13;;;2.80;;
62475;SDS011;50739;45.670;11.936;2022-08-27T15:29:56;3.60;;;2.80;;
62475;SDS011;50739;45.670;11.936;2022-08-27T15:34:59;3.47;;;2.70;;
62475;SDS011;50739;45.670;11.936;2022-08-27T15:40:06;3.65;;;2.80;;
62475;SDS011;50739;45.670;11.936;2022-08-27T15:45:09;3.50;;;2.90;;
62475;SDS011;50739;45.670;11.936;2022-08-27T15:50:13;4.05;;;2.70;;
62475;SDS011;50739;45.670;11.936;2022-08-27T15:55:19;3.63;;;3.00;;
62475;SDS011;50739;45.670;11.936;2022-08-27T16:00:24;6.27;;;2.80;;
62475;SDS011;50739;45.670;11.936;2022-08-27T16:05:28;3.28;;;2.63;;
62475;SDS011;50739;45.670;11.936;2022-08-27T16:10:35;4.60;;;3.07;;
62475;SDS011;50739;45.670;11.936;2022-08-27T16:15:37;2.97;;;2.65;;
62475;SDS011;50739;45.670;11.936;2022-08-27T16:20:40;4.43;;;3.00;;
62475;SDS011;50739;45.670;11.936;2022-08-27T16:25:44;5.35;;;4.07;;
62475;SDS011;50739;45.670;11.936;2022-08-27T16:30:46;6.88;;;4.05;;
62475;SDS011;50739;45.670;11.936;2022-08-27T16:35:48;6.25;;;4.05;;
62475;SDS011;50739;45.670;11.936;2022-08-27T16:40:52;6.47;;;4.20;;
62475;SDS011;50739;45.670;11.936;2022-08-27T16:45:57;5.10;;;4.32;;
62475;SDS011;50739;45.670;11.936;2022-08-27T16:51:00;6.80;;;4.43;;
62475;SDS011;50739;45.670;11.936;2022-08-27T16:56:06;5.93;;;4.40;;
62475;SDS011;50739;45.670;11.936;2022-08-27T17:01:08;6.25;;;4.43;;
62475;SDS011;50739;45.670;11.936;2022-08-27T17:06:12;7.13;;;4.15;;
62475;SDS011;50739;45.670;11.936;2022-08-27T17:11:18;7.28;;;4.75;;
62475;SDS011;50739;45.670;11.936;2022-08-27T17:16:21;6.43;;;4.87;;
62475;SDS011;50739;45.670;11.936;2022-08-27T17:21:25;4.70;;;4.20;;
62475;SDS011;50739;45.670;11.936;2022-08-27T17:26:31;5.37;;;3.87;;
62475;SDS011;50739;45.670;11.936;2022-08-27T17:31:35;7.13;;;4.28;;
62475;SDS011;50739;45.670;11.936;2022-08-27T17:36:38;5.10;;;4.20;;
62475;SDS011;50739;45.670;11.936;2022-08-27T17:41:41;5.68;;;3.70;;
62475;SDS011;50739;45.670;11.936;2022-08-27T17:46:44;5.45;;;4.10;;
62475;SDS011;50739;45.670;11.936;2022-08-27T17:51:47;4.93;;;3.83;;
62475;SDS011;50739;45.670;11.936;2022-08-27T17:56:52;6.50;;;4.18;;
62475;SDS011;50739;45.670;11.936;2022-08-27T18:01:54;4.95;;;3.88;;
62475;SDS011;50739;45.670;11.936;2022-08-27T18:06:56;6.40;;;4.40;;
62475;SDS011;50739;45.670;11.936;2022-08-27T18:11:59;5.32;;;4.10;;
62475;SDS011;50739;45.670;11.936;2022-08-27T18:17:01;5.83;;;4.00;;
62475;SDS011;50739;45.670;11.936;2022-08-27T18:22:03;5.03;;;3.97;;
62475;SDS011;50739;45.670;11.936;2022-08-27T18:27:06;5.85;;;3.83;;
62475;SDS011;50739;45.670;11.936;2022-08-27T18:32:08;6.70;;;4.50;;
62475;SDS011;50739;45.670;11.936;2022-08-27T18:37:10;8.32;;;4.10;;
62475;SDS011;50739;45.670;11.936;2022-08-27T18:42:13;5.90;;;4.37;;
62475;SDS011;50739;45.670;11.936;2022-08-27T18:47:16;7.05;;;4.50;;
62475;SDS011;50739;45.670;11.936;2022-08-27T18:52:18;7.18;;;4.40;;
62475;SDS011;50739;45.670;11.936;2022-08-27T18:57:24;5.65;;;4.53;;
62475;SDS011;50739;45.670;11.936;2022-08-27T19:02:26;7.67;;;4.77;;
62475;SDS011;50739;45.670;11.936;2022-08-27T19:07:30;6.35;;;4.30;;
62475;SDS011;50739;45.670;11.936;2022-08-27T19:12:51;7.60;;;4.70;;
62475;SDS011;50739;45.670;11.936;2022-08-27T19:17:54;7.53;;;5.30;;
62475;SDS011;50739;45.670;11.936;2022-08-27T19:23:13;7.57;;;5.27;;
62475;SDS011;50739;45.670;11.936;2022-08-27T19:28:17;7.30;;;5.50;;
62475;SDS011;50739;45.670;11.936;2022-08-27T19:33:22;7.90;;;5.38;;
62475;SDS011;50739;45.670;11.936;2022-08-27T19:38:25;9.88;;;6.10;;
62475;SDS011;50739;45.670;11.936;2022-08-27T19:43:29;11.52;;;5.90;;
62475;SDS011;50739;45.670;11.936;2022-08-27T19:48:31;8.02;;;5.80;;
62475;SDS011;50739;45.670;11.936;2022-08-27T19:53:33;9.07;;;5.53;;
62475;SDS011;50739;45.670;11.936;2022-08-27T19:58:37;7.13;;;5.43;;
62475;SDS011;50739;45.670;11.936;2022-08-27T20:03:39;8.02;;;5.45;;
62475;SDS011;50739;45.670;11.936;2022-08-27T20:08:41;8.50;;;5.63;;
62475;SDS011;50739;45.670;11.936;2022-08-27T20:13:45;7.32;;;5.03;;
62475;SDS011;50739;45.670;11.936;2022-08-27T20:18:46;7.70;;;5.27;;
62475;SDS011;50739;45.670;11.936;2022-08-27T20:23:48;7.17;;;5.30;;
62475;SDS011;50739;45.670;11.936;2022-08-27T20:28:51;7.40;;;5.43;;
62475;SDS011;50739;45.670;11.936;2022-08-27T20:33:53;7.38;;;5.50;;
62475;SDS011;50739;45.670;11.936;2022-08-27T20:38:56;7.85;;;5.60;;
62475;SDS011;50739;45.670;11.936;2022-08-27T20:43:59;9.52;;;5.85;;
62475;SDS011;50739;45.670;11.936;2022-08-27T20:49:01;7.17;;;5.80;;
62475;SDS011;50739;45.670;11.936;2022-08-27T20:54:03;8.70;;;5.68;;
62475;SDS011;50739;45.670;11.936;2022-08-27T20:59:07;7.40;;;5.68;;
62475;SDS011;50739;45.670;11.936;2022-08-27T21:04:35;8.30;;;6.05;;
62475;SDS011;50739;45.670;11.936;2022-08-27T21:09:38;6.80;;;5.60;;
62475;SDS011;50739;45.670;11.936;2022-08-27T21:14:41;7.85;;;5.90;;
62475;SDS011;50739;45.670;11.936;2022-08-27T21:19:43;7.82;;;5.63;;
62475;SDS011;50739;45.670;11.936;2022-08-27T21:24:45;7.07;;;5.78;;
62475;SDS011;50739;45.670;11.936;2022-08-27T21:29:48;6.85;;;5.75;;
62475;SDS011;50739;45.670;11.936;2022-08-27T21:34:50;9.82;;;6.18;;
62475;SDS011;50739;45.670;11.936;2022-08-27T21:39:52;8.80;;;6.47;;
62475;SDS011;50739;45.670;11.936;2022-08-27T21:44:55;10.53;;;7.27;;
62475;SDS011;50739;45.670;11.936;2022-08-27T21:49:57;9.55;;;7.30;;
62475;SDS011;50739;45.670;11.936;2022-08-27T21:54:59;9.93;;;6.43;;
62475;SDS011;50739;45.670;11.936;2022-08-27T22:00:07;9.70;;;7.05;;
62475;SDS011;50739;45.670;11.936;2022-08-27T22:05:15;10.75;;;6.60;;
62475;SDS011;50739;45.670;11.936;2022-08-27T22:10:17;9.93;;;6.75;;
62475;SDS011;50739;45.670;11.936;2022-08-27T22:15:21;8.70;;;6.40;;
62475;SDS011;50739;45.670;11.936;2022-08-27T22:20:23;10.07;;;7.13;;
62475;SDS011;50739;45.670;11.936;2022-08-27T22:25:25;9.55;;;7.38;;
62475;SDS011;50739;45.670;11.936;2022-08-27T22:30:28;11.03;;;7.13;;
62475;SDS011;50739;45.670;11.936;2022-08-27T22:35:30;9.10;;;6.90;;
62475;SDS011;50739;45.670;11.936;2022-08-27T22:40:33;10.32;;;7.13;;
62475;SDS011;50739;45.670;11.936;2022-08-27T22:45:36;10.40;;;7.30;;
62475;SDS011;50739;45.670;11.936;2022-08-27T22:50:38;10.70;;;7.20;;
62475;SDS011;50739;45.670;11.936;2022-08-27T22:55:40;10.23;;;6.43;;
62475;SDS011;50739;45.670;11.936;2022-08-27T23:00:43;9.50;;;6.67;;
62475;SDS011;50739;45.670;11.936;2022-08-27T23:05:46;10.02;;;7.00;;
62475;SDS011;50739;45.670;11.936;2022-08-27T23:10:48;10.98;;;7.00;;
62475;SDS011;50739;45.670;11.936;2022-08-27T23:15:53;10.45;;;7.00;;
62475;SDS011;50739;45.670;11.936;2022-08-27T23:20:56;11.23;;;8.20;;
62475;SDS011;50739;45.670;11.936;2022-08-27T23:25:57;11.73;;;7.70;;
62475;SDS011;50739;45.670;11.936;2022-08-27T23:31:18;10.07;;;7.27;;
62475;SDS011;50739;45.670;11.936;2022-08-27T23:36:20;9.98;;;7.15;;
62475;SDS011;50739;45.670;11.936;2022-08-27T23:41:22;11.15;;;8.10;;
62475;SDS011;50739;45.670;11.936;2022-08-27T23:46:27;9.97;;;8.23;;
62475;SDS011;50739;45.670;11.936;2022-08-27T23:51:29;11.23;;;8.02;;
62475;SDS011;50739;45.670;11.936;2022-08-27T23:56:31;11.38;;;7.60;;
